sensor_id;sensor_type;location;lat;lon;timestamp;P1;durP1;ratioP1;P2;durP2;ratioP2
22955;SDS011;40888;48.148;11.526;2022-12-07T00:01:47;12.70;;;11.60;;
22955;SDS011;40888;48.148;11.526;2022-12-07T00:04:15;13.20;;;12.00;;
22955;SDS011;40888;48.148;11.526;2022-12-07T00:06:42;13.30;;;12.00;;
22955;SDS011;40888;48.148;11.526;2022-12-07T00:09:18;12.60;;;11.30;;
22955;SDS011;40888;48.148;11.526;2022-12-07T00:11:44;12.40;;;11.30;;
22955;SDS011;40888;48.148;11.526;2022-12-07T00:14:14;12.43;;;11.23;;
22955;SDS011;40888;48.148;11.526;2022-12-07T00:16:41;12.27;;;11.17;;
22955;SDS011;40888;48.148;11.526;2022-12-07T00:19:09;12.67;;;11.57;;
22955;SDS011;40888;48.148;11.526;2022-12-07T00:21:35;12.57;;;11.37;;
22955;SDS011;40888;48.148;11.526;2022-12-07T00:24:02;11.93;;;10.77;;
22955;SDS011;40888;48.148;11.526;2022-12-07T00:26:33;12.47;;;11.27;;
22955;SDS011;40888;48.148;11.526;2022-12-07T00:29:00;12.63;;;11.47;;
22955;SDS011;40888;48.148;11.526;2022-12-07T00:31:28;11.23;;;10.13;;
22955;SDS011;40888;48.148;11.526;2022-12-07T00:33:54;11.53;;;10.53;;
22955;SDS011;40888;48.148;11.526;2022-12-07T00:36:22;12.37;;;11.20;;
22955;SDS011;40888;48.148;11.526;2022-12-07T00:38:48;11.83;;;10.73;;
22955;SDS011;40888;48.148;11.526;2022-12-07T00:41:19;11.13;;;10.13;;
22955;SDS011;40888;48.148;11.526;2022-12-07T00:43:46;11.93;;;10.87;;
22955;SDS011;40888;48.148;11.526;2022-12-07T00:46:13;11.50;;;10.40;;
22955;SDS011;40888;48.148;11.526;2022-12-07T00:48:39;11.93;;;10.73;;
22955;SDS011;40888;48.148;11.526;2022-12-07T00:51:05;11.03;;;10.03;;
22955;SDS011;40888;48.148;11.526;2022-12-07T00:53:35;11.87;;;10.87;;
22955;SDS011;40888;48.148;11.526;2022-12-07T00:56:05;12.10;;;11.00;;
22955;SDS011;40888;48.148;11.526;2022-12-07T00:58:32;11.90;;;10.70;;
22955;SDS011;40888;48.148;11.526;2022-12-07T01:01:01;10.93;;;9.93;;
22955;SDS011;40888;48.148;11.526;2022-12-07T01:03:28;11.87;;;10.77;;
22955;SDS011;40888;48.148;11.526;2022-12-07T01:05:54;10.97;;;9.97;;
22955;SDS011;40888;48.148;11.526;2022-12-07T01:08:21;11.10;;;10.10;;
22955;SDS011;40888;48.148;11.526;2022-12-07T01:10:48;10.87;;;9.87;;
22955;SDS011;40888;48.148;11.526;2022-12-07T01:13:14;11.97;;;10.77;;
22955;SDS011;40888;48.148;11.526;2022-12-07T01:15:41;10.97;;;10.03;;
22955;SDS011;40888;48.148;11.526;2022-12-07T01:18:08;11.17;;;10.17;;
22955;SDS011;40888;48.148;11.526;2022-12-07T01:20:34;10.33;;;9.33;;
22955;SDS011;40888;48.148;11.526;2022-12-07T01:23:01;10.63;;;9.63;;
22955;SDS011;40888;48.148;11.526;2022-12-07T01:25:27;11.50;;;10.50;;
22955;SDS011;40888;48.148;11.526;2022-12-07T01:27:53;11.50;;;10.40;;
22955;SDS011;40888;48.148;11.526;2022-12-07T01:30:19;10.90;;;9.90;;
22955;SDS011;40888;48.148;11.526;2022-12-07T01:32:46;11.73;;;10.63;;
22955;SDS011;40888;48.148;11.526;2022-12-07T01:35:12;10.57;;;9.63;;
22955;SDS011;40888;48.148;11.526;2022-12-07T01:37:38;11.70;;;10.60;;
22955;SDS011;40888;48.148;11.526;2022-12-07T01:40:05;11.40;;;10.40;;
22955;SDS011;40888;48.148;11.526;2022-12-07T01:42:32;10.90;;;9.90;;
22955;SDS011;40888;48.148;11.526;2022-12-07T01:47:44;11.53;;;10.37;;
22955;SDS011;40888;48.148;11.526;2022-12-07T01:50:12;11.00;;;10.00;;
22955;SDS011;40888;48.148;11.526;2022-12-07T01:52:38;11.23;;;10.23;;
22955;SDS011;40888;48.148;11.526;2022-12-07T01:55:09;11.10;;;10.10;;
22955;SDS011;40888;48.148;11.526;2022-12-07T01:57:37;10.80;;;9.83;;
22955;SDS011;40888;48.148;11.526;2022-12-07T02:00:05;10.77;;;9.77;;
22955;SDS011;40888;48.148;11.526;2022-12-07T02:02:37;11.47;;;10.33;;
22955;SDS011;40888;48.148;11.526;2022-12-07T02:05:04;11.80;;;10.70;;
22955;SDS011;40888;48.148;11.526;2022-12-07T02:07:31;11.37;;;10.27;;
22955;SDS011;40888;48.148;11.526;2022-12-07T02:10:11;12.03;;;10.83;;
22955;SDS011;40888;48.148;11.526;2022-12-07T02:12:38;10.80;;;9.80;;
22955;SDS011;40888;48.148;11.526;2022-12-07T02:15:04;12.60;;;11.40;;
22955;SDS011;40888;48.148;11.526;2022-12-07T02:18:14;11.23;;;10.20;;
22955;SDS011;40888;48.148;11.526;2022-12-07T02:20:21;11.83;;;10.67;;
22955;SDS011;40888;48.148;11.526;2022-12-07T02:23:33;10.80;;;9.80;;
22955;SDS011;40888;48.148;11.526;2022-12-07T02:28:12;11.57;;;10.47;;
22955;SDS011;40888;48.148;11.526;2022-12-07T02:30:44;11.20;;;10.00;;
22955;SDS011;40888;48.148;11.526;2022-12-07T02:33:20;10.80;;;9.70;;
22955;SDS011;40888;48.148;11.526;2022-12-07T02:43:24;10.77;;;9.77;;
22955;SDS011;40888;48.148;11.526;2022-12-07T02:45:52;10.67;;;9.67;;
22955;SDS011;40888;48.148;11.526;2022-12-07T02:48:19;11.27;;;10.17;;
22955;SDS011;40888;48.148;11.526;2022-12-07T02:50:49;13.13;;;10.67;;
22955;SDS011;40888;48.148;11.526;2022-12-07T02:55:59;11.43;;;10.33;;
22955;SDS011;40888;48.148;11.526;2022-12-07T03:01:20;11.57;;;10.47;;
22955;SDS011;40888;48.148;11.526;2022-12-07T03:03:54;12.57;;;11.30;;
22955;SDS011;40888;48.148;11.526;2022-12-07T03:06:27;11.53;;;10.43;;
22955;SDS011;40888;48.148;11.526;2022-12-07T03:11:45;12.07;;;10.87;;
22955;SDS011;40888;48.148;11.526;2022-12-07T03:14:17;12.37;;;11.17;;
22955;SDS011;40888;48.148;11.526;2022-12-07T03:16:50;11.60;;;10.60;;
22955;SDS011;40888;48.148;11.526;2022-12-07T03:19:19;11.87;;;10.80;;
22955;SDS011;40888;48.148;11.526;2022-12-07T03:21:53;11.30;;;10.30;;
22955;SDS011;40888;48.148;11.526;2022-12-07T03:24:21;11.20;;;10.10;;
22955;SDS011;40888;48.148;11.526;2022-12-07T03:27:34;11.87;;;10.70;;
22955;SDS011;40888;48.148;11.526;2022-12-07T03:29:44;11.80;;;10.70;;
22955;SDS011;40888;48.148;11.526;2022-12-07T03:34:58;12.60;;;10.87;;
22955;SDS011;40888;48.148;11.526;2022-12-07T03:37:33;11.97;;;10.87;;
22955;SDS011;40888;48.148;11.526;2022-12-07T03:40:08;12.60;;;11.40;;
22955;SDS011;40888;48.148;11.526;2022-12-07T03:42:39;12.27;;;11.07;;
22955;SDS011;40888;48.148;11.526;2022-12-07T03:45:05;12.07;;;10.87;;
22955;SDS011;40888;48.148;11.526;2022-12-07T03:47:36;12.73;;;11.53;;
22955;SDS011;40888;48.148;11.526;2022-12-07T03:50:10;12.43;;;11.33;;
22955;SDS011;40888;48.148;11.526;2022-12-07T03:52:40;12.13;;;11.03;;
22955;SDS011;40888;48.148;11.526;2022-12-07T03:55:09;12.30;;;11.00;;
22955;SDS011;40888;48.148;11.526;2022-12-07T03:57:37;12.57;;;11.33;;
22955;SDS011;40888;48.148;11.526;2022-12-07T04:00:04;12.03;;;10.83;;
22955;SDS011;40888;48.148;11.526;2022-12-07T04:02:32;12.20;;;11.00;;
22955;SDS011;40888;48.148;11.526;2022-12-07T04:04:58;12.70;;;11.50;;
22955;SDS011;40888;48.148;11.526;2022-12-07T04:07:25;12.43;;;11.23;;
22955;SDS011;40888;48.148;11.526;2022-12-07T04:09:51;12.57;;;11.37;;
22955;SDS011;40888;48.148;11.526;2022-12-07T04:12:20;11.87;;;10.80;;
22955;SDS011;40888;48.148;11.526;2022-12-07T04:14:46;12.40;;;11.20;;
22955;SDS011;40888;48.148;11.526;2022-12-07T04:17:12;12.47;;;11.37;;
22955;SDS011;40888;48.148;11.526;2022-12-07T04:19:38;12.03;;;10.93;;
22955;SDS011;40888;48.148;11.526;2022-12-07T04:22:05;13.20;;;11.90;;
22955;SDS011;40888;48.148;11.526;2022-12-07T04:24:31;12.27;;;11.07;;
22955;SDS011;40888;48.148;11.526;2022-12-07T04:26:58;12.47;;;11.27;;
22955;SDS011;40888;48.148;11.526;2022-12-07T04:29:24;12.97;;;11.67;;
22955;SDS011;40888;48.148;11.526;2022-12-07T04:31:50;12.87;;;11.63;;
22955;SDS011;40888;48.148;11.526;2022-12-07T04:34:17;13.67;;;12.33;;
22955;SDS011;40888;48.148;11.526;2022-12-07T04:36:44;13.20;;;12.00;;
22955;SDS011;40888;48.148;11.526;2022-12-07T04:39:18;14.37;;;12.97;;
22955;SDS011;40888;48.148;11.526;2022-12-07T04:41:45;14.87;;;13.47;;
22955;SDS011;40888;48.148;11.526;2022-12-07T04:44:11;15.60;;;14.10;;
22955;SDS011;40888;48.148;11.526;2022-12-07T04:46:39;15.87;;;13.97;;
22955;SDS011;40888;48.148;11.526;2022-12-07T04:49:06;15.47;;;13.97;;
22955;SDS011;40888;48.148;11.526;2022-12-07T04:51:32;15.13;;;13.70;;
22955;SDS011;40888;48.148;11.526;2022-12-07T04:53:58;17.03;;;15.33;;
22955;SDS011;40888;48.148;11.526;2022-12-07T04:56:24;16.40;;;14.70;;
22955;SDS011;40888;48.148;11.526;2022-12-07T04:58:51;16.97;;;15.37;;
22955;SDS011;40888;48.148;11.526;2022-12-07T05:01:18;16.63;;;14.93;;
22955;SDS011;40888;48.148;11.526;2022-12-07T05:03:44;16.43;;;14.87;;
22955;SDS011;40888;48.148;11.526;2022-12-07T05:06:11;17.20;;;15.43;;
22955;SDS011;40888;48.148;11.526;2022-12-07T05:08:37;15.47;;;13.97;;
22955;SDS011;40888;48.148;11.526;2022-12-07T05:11:04;15.40;;;13.97;;
22955;SDS011;40888;48.148;11.526;2022-12-07T05:13:30;15.73;;;14.20;;
22955;SDS011;40888;48.148;11.526;2022-12-07T05:15:57;17.27;;;15.47;;
22955;SDS011;40888;48.148;11.526;2022-12-07T05:18:23;16.77;;;15.17;;
22955;SDS011;40888;48.148;11.526;2022-12-07T05:20:49;16.37;;;14.67;;
22955;SDS011;40888;48.148;11.526;2022-12-07T05:23:16;16.20;;;14.60;;
22955;SDS011;40888;48.148;11.526;2022-12-07T05:25:42;17.67;;;15.70;;
22955;SDS011;40888;48.148;11.526;2022-12-07T05:28:09;18.40;;;16.50;;
22955;SDS011;40888;48.148;11.526;2022-12-07T05:30:35;17.13;;;15.43;;
22955;SDS011;40888;48.148;11.526;2022-12-07T05:33:01;17.30;;;15.60;;
22955;SDS011;40888;48.148;11.526;2022-12-07T05:35:28;18.57;;;16.77;;
22955;SDS011;40888;48.148;11.526;2022-12-07T05:37:55;17.03;;;15.23;;
22955;SDS011;40888;48.148;11.526;2022-12-07T05:40:22;18.07;;;16.27;;
22955;SDS011;40888;48.148;11.526;2022-12-07T05:42:48;17.40;;;15.70;;
22955;SDS011;40888;48.148;11.526;2022-12-07T05:45:14;16.90;;;15.30;;
22955;SDS011;40888;48.148;11.526;2022-12-07T05:47:40;17.27;;;15.47;;
22955;SDS011;40888;48.148;11.526;2022-12-07T05:50:07;18.13;;;16.33;;
22955;SDS011;40888;48.148;11.526;2022-12-07T05:52:33;18.50;;;16.73;;
22955;SDS011;40888;48.148;11.526;2022-12-07T05:54:59;18.50;;;16.70;;
22955;SDS011;40888;48.148;11.526;2022-12-07T05:57:25;18.93;;;17.03;;
22955;SDS011;40888;48.148;11.526;2022-12-07T05:59:51;18.33;;;16.50;;
22955;SDS011;40888;48.148;11.526;2022-12-07T06:02:18;18.70;;;16.90;;
22955;SDS011;40888;48.148;11.526;2022-12-07T06:04:44;18.70;;;16.90;;
22955;SDS011;40888;48.148;11.526;2022-12-07T06:07:11;18.97;;;17.07;;
22955;SDS011;40888;48.148;11.526;2022-12-07T06:09:38;19.43;;;17.47;;
22955;SDS011;40888;48.148;11.526;2022-12-07T06:12:04;18.60;;;16.80;;
22955;SDS011;40888;48.148;11.526;2022-12-07T06:14:49;19.17;;;17.27;;
22955;SDS011;40888;48.148;11.526;2022-12-07T06:17:16;18.57;;;16.70;;
22955;SDS011;40888;48.148;11.526;2022-12-07T06:19:42;18.17;;;16.37;;
22955;SDS011;40888;48.148;11.526;2022-12-07T06:22:09;16.73;;;15.13;;
22955;SDS011;40888;48.148;11.526;2022-12-07T06:24:36;16.03;;;14.47;;
22955;SDS011;40888;48.148;11.526;2022-12-07T06:27:03;18.97;;;17.07;;
22955;SDS011;40888;48.148;11.526;2022-12-07T06:29:30;17.97;;;16.17;;
22955;SDS011;40888;48.148;11.526;2022-12-07T06:31:56;18.07;;;16.20;;
22955;SDS011;40888;48.148;11.526;2022-12-07T06:34:23;17.57;;;15.47;;
22955;SDS011;40888;48.148;11.526;2022-12-07T06:36:49;17.27;;;15.63;;
22955;SDS011;40888;48.148;11.526;2022-12-07T06:39:17;18.03;;;16.33;;
22955;SDS011;40888;48.148;11.526;2022-12-07T06:41:44;18.07;;;15.90;;
22955;SDS011;40888;48.148;11.526;2022-12-07T06:44:10;17.17;;;15.47;;
22955;SDS011;40888;48.148;11.526;2022-12-07T06:46:36;17.63;;;15.80;;
22955;SDS011;40888;48.148;11.526;2022-12-07T06:49:03;17.37;;;15.67;;
22955;SDS011;40888;48.148;11.526;2022-12-07T06:51:30;17.37;;;15.70;;
22955;SDS011;40888;48.148;11.526;2022-12-07T06:53:56;16.87;;;15.23;;
22955;SDS011;40888;48.148;11.526;2022-12-07T06:56:23;17.10;;;15.43;;
22955;SDS011;40888;48.148;11.526;2022-12-07T06:58:49;16.83;;;15.23;;
22955;SDS011;40888;48.148;11.526;2022-12-07T07:01:16;17.57;;;15.73;;
22955;SDS011;40888;48.148;11.526;2022-12-07T07:03:43;17.07;;;15.37;;
22955;SDS011;40888;48.148;11.526;2022-12-07T07:06:10;18.10;;;16.40;;
22955;SDS011;40888;48.148;11.526;2022-12-07T07:08:36;17.37;;;15.67;;
22955;SDS011;40888;48.148;11.526;2022-12-07T07:11:03;17.73;;;16.03;;
22955;SDS011;40888;48.148;11.526;2022-12-07T07:13:30;18.20;;;16.40;;
22955;SDS011;40888;48.148;11.526;2022-12-07T07:15:56;18.47;;;16.63;;
22955;SDS011;40888;48.148;11.526;2022-12-07T07:18:23;21.23;;;19.20;;
22955;SDS011;40888;48.148;11.526;2022-12-07T07:20:50;19.43;;;17.53;;
22955;SDS011;40888;48.148;11.526;2022-12-07T07:23:16;17.13;;;15.53;;
22955;SDS011;40888;48.148;11.526;2022-12-07T07:25:42;18.37;;;16.63;;
22955;SDS011;40888;48.148;11.526;2022-12-07T07:28:08;18.50;;;16.60;;
22955;SDS011;40888;48.148;11.526;2022-12-07T07:30:35;18.70;;;16.70;;
22955;SDS011;40888;48.148;11.526;2022-12-07T07:33:01;18.83;;;17.03;;
22955;SDS011;40888;48.148;11.526;2022-12-07T07:35:28;19.00;;;17.10;;
22955;SDS011;40888;48.148;11.526;2022-12-07T07:37:55;18.80;;;16.80;;
22955;SDS011;40888;48.148;11.526;2022-12-07T07:40:21;18.77;;;16.93;;
22955;SDS011;40888;48.148;11.526;2022-12-07T07:42:48;19.13;;;17.30;;
22955;SDS011;40888;48.148;11.526;2022-12-07T07:45:15;20.00;;;17.90;;
22955;SDS011;40888;48.148;11.526;2022-12-07T07:47:41;19.47;;;17.47;;
22955;SDS011;40888;48.148;11.526;2022-12-07T07:50:07;18.67;;;16.70;;
22955;SDS011;40888;48.148;11.526;2022-12-07T07:52:34;18.23;;;16.37;;
22955;SDS011;40888;48.148;11.526;2022-12-07T07:55:00;20.30;;;18.23;;
22955;SDS011;40888;48.148;11.526;2022-12-07T07:57:26;18.50;;;16.80;;
22955;SDS011;40888;48.148;11.526;2022-12-07T07:59:52;18.73;;;16.93;;
22955;SDS011;40888;48.148;11.526;2022-12-07T08:02:19;19.07;;;17.23;;
22955;SDS011;40888;48.148;11.526;2022-12-07T08:04:45;19.67;;;17.67;;
22955;SDS011;40888;48.148;11.526;2022-12-07T08:07:12;19.60;;;17.17;;
22955;SDS011;40888;48.148;11.526;2022-12-07T08:09:38;19.83;;;17.77;;
22955;SDS011;40888;48.148;11.526;2022-12-07T08:12:05;19.93;;;17.53;;
22955;SDS011;40888;48.148;11.526;2022-12-07T08:14:31;18.67;;;16.77;;
22955;SDS011;40888;48.148;11.526;2022-12-07T08:16:57;20.50;;;18.50;;
22955;SDS011;40888;48.148;11.526;2022-12-07T08:19:24;19.73;;;17.63;;
22955;SDS011;40888;48.148;11.526;2022-12-07T08:21:50;20.47;;;18.37;;
22955;SDS011;40888;48.148;11.526;2022-12-07T08:24:16;20.60;;;18.33;;
22955;SDS011;40888;48.148;11.526;2022-12-07T08:26:42;20.43;;;18.33;;
22955;SDS011;40888;48.148;11.526;2022-12-07T08:29:08;22.20;;;17.97;;
22955;SDS011;40888;48.148;11.526;2022-12-07T08:31:34;20.57;;;18.53;;
22955;SDS011;40888;48.148;11.526;2022-12-07T08:34:01;21.40;;;19.30;;
22955;SDS011;40888;48.148;11.526;2022-12-07T08:36:27;21.90;;;19.60;;
22955;SDS011;40888;48.148;11.526;2022-12-07T08:38:53;21.73;;;19.43;;
22955;SDS011;40888;48.148;11.526;2022-12-07T08:41:19;22.37;;;20.03;;
22955;SDS011;40888;48.148;11.526;2022-12-07T08:43:45;20.37;;;18.37;;
22955;SDS011;40888;48.148;11.526;2022-12-07T08:46:13;21.20;;;19.00;;
22955;SDS011;40888;48.148;11.526;2022-12-07T08:48:43;20.33;;;18.27;;
22955;SDS011;40888;48.148;11.526;2022-12-07T08:51:11;19.97;;;17.97;;
22955;SDS011;40888;48.148;11.526;2022-12-07T08:53:37;21.97;;;19.67;;
22955;SDS011;40888;48.148;11.526;2022-12-07T08:56:04;20.10;;;18.10;;
22955;SDS011;40888;48.148;11.526;2022-12-07T08:58:32;19.50;;;17.50;;
22955;SDS011;40888;48.148;11.526;2022-12-07T09:00:58;18.80;;;17.00;;
22955;SDS011;40888;48.148;11.526;2022-12-07T09:03:24;19.67;;;17.63;;
22955;SDS011;40888;48.148;11.526;2022-12-07T09:05:51;19.73;;;17.73;;
22955;SDS011;40888;48.148;11.526;2022-12-07T09:08:18;17.67;;;15.87;;
22955;SDS011;40888;48.148;11.526;2022-12-07T09:10:44;19.43;;;17.53;;
22955;SDS011;40888;48.148;11.526;2022-12-07T09:13:11;17.40;;;15.60;;
22955;SDS011;40888;48.148;11.526;2022-12-07T09:15:37;17.53;;;15.73;;
22955;SDS011;40888;48.148;11.526;2022-12-07T09:18:03;17.27;;;15.57;;
22955;SDS011;40888;48.148;11.526;2022-12-07T09:20:29;18.27;;;16.40;;
22955;SDS011;40888;48.148;11.526;2022-12-07T09:22:55;17.80;;;16.00;;
22955;SDS011;40888;48.148;11.526;2022-12-07T09:25:22;18.83;;;16.47;;
22955;SDS011;40888;48.148;11.526;2022-12-07T09:27:52;17.37;;;15.63;;
22955;SDS011;40888;48.148;11.526;2022-12-07T09:30:20;17.50;;;15.70;;
22955;SDS011;40888;48.148;11.526;2022-12-07T09:32:46;16.53;;;14.93;;
22955;SDS011;40888;48.148;11.526;2022-12-07T09:35:12;16.23;;;14.63;;
22955;SDS011;40888;48.148;11.526;2022-12-07T09:37:39;16.20;;;14.67;;
22955;SDS011;40888;48.148;11.526;2022-12-07T09:40:05;15.97;;;14.37;;
22955;SDS011;40888;48.148;11.526;2022-12-07T09:42:45;15.93;;;14.23;;
22955;SDS011;40888;48.148;11.526;2022-12-07T09:45:14;16.43;;;14.83;;
22955;SDS011;40888;48.148;11.526;2022-12-07T09:47:41;14.60;;;13.27;;
22955;SDS011;40888;48.148;11.526;2022-12-07T09:50:12;14.67;;;13.27;;
22955;SDS011;40888;48.148;11.526;2022-12-07T09:52:38;14.00;;;12.60;;
22955;SDS011;40888;48.148;11.526;2022-12-07T09:55:09;15.83;;;14.23;;
22955;SDS011;40888;48.148;11.526;2022-12-07T09:57:36;14.47;;;13.07;;
22955;SDS011;40888;48.148;11.526;2022-12-07T10:00:05;14.77;;;13.37;;
22955;SDS011;40888;48.148;11.526;2022-12-07T10:02:36;14.10;;;12.67;;
22955;SDS011;40888;48.148;11.526;2022-12-07T10:05:04;14.60;;;13.20;;
22955;SDS011;40888;48.148;11.526;2022-12-07T10:07:31;14.70;;;13.30;;
22955;SDS011;40888;48.148;11.526;2022-12-07T10:09:57;14.53;;;13.10;;
22955;SDS011;40888;48.148;11.526;2022-12-07T10:12:23;14.20;;;12.77;;
22955;SDS011;40888;48.148;11.526;2022-12-07T10:14:54;14.67;;;13.27;;
22955;SDS011;40888;48.148;11.526;2022-12-07T10:17:29;13.03;;;11.83;;
22955;SDS011;40888;48.148;11.526;2022-12-07T10:22:55;14.93;;;13.43;;
22955;SDS011;40888;48.148;11.526;2022-12-07T10:25:22;13.53;;;12.23;;
22955;SDS011;40888;48.148;11.526;2022-12-07T10:30:33;12.90;;;11.50;;
22955;SDS011;40888;48.148;11.526;2022-12-07T10:33:31;12.37;;;11.20;;
22955;SDS011;40888;48.148;11.526;2022-12-07T10:35:58;11.20;;;10.20;;
22955;SDS011;40888;48.148;11.526;2022-12-07T10:38:26;12.53;;;11.27;;
22955;SDS011;40888;48.148;11.526;2022-12-07T10:41:05;11.87;;;10.67;;
22955;SDS011;40888;48.148;11.526;2022-12-07T10:43:32;11.53;;;10.43;;
22955;SDS011;40888;48.148;11.526;2022-12-07T11:26:49;8.30;;;7.60;;
22955;SDS011;40888;48.148;11.526;2022-12-07T11:32:28;7.77;;;7.07;;
22955;SDS011;40888;48.148;11.526;2022-12-07T11:38:16;9.03;;;7.70;;
22955;SDS011;40888;48.148;11.526;2022-12-07T11:40:46;10.37;;;6.97;;
22955;SDS011;40888;48.148;11.526;2022-12-07T11:43:17;8.53;;;7.63;;
22955;SDS011;40888;48.148;11.526;2022-12-07T11:46:17;8.87;;;8.07;;
22955;SDS011;40888;48.148;11.526;2022-12-07T11:48:50;8.90;;;8.00;;
22955;SDS011;40888;48.148;11.526;2022-12-07T11:51:18;9.13;;;8.30;;
22955;SDS011;40888;48.148;11.526;2022-12-07T11:53:53;9.90;;;8.30;;
22955;SDS011;40888;48.148;11.526;2022-12-07T11:56:21;8.37;;;7.57;;
22955;SDS011;40888;48.148;11.526;2022-12-07T12:01:26;7.90;;;6.57;;
22955;SDS011;40888;48.148;11.526;2022-12-07T12:03:57;6.30;;;5.70;;
22955;SDS011;40888;48.148;11.526;2022-12-07T12:06:24;6.07;;;5.50;;
22955;SDS011;40888;48.148;11.526;2022-12-07T12:14:24;6.50;;;5.77;;
22955;SDS011;40888;48.148;11.526;2022-12-07T12:19:42;6.83;;;6.20;;
22955;SDS011;40888;48.148;11.526;2022-12-07T12:24:39;7.20;;;6.50;;
22955;SDS011;40888;48.148;11.526;2022-12-07T12:27:07;8.10;;;7.20;;
22955;SDS011;40888;48.148;11.526;2022-12-07T12:29:38;9.43;;;6.83;;
22955;SDS011;40888;48.148;11.526;2022-12-07T12:32:18;7.67;;;6.87;;
22955;SDS011;40888;48.148;11.526;2022-12-07T12:42:45;6.80;;;6.00;;
22955;SDS011;40888;48.148;11.526;2022-12-07T12:45:19;10.50;;;7.37;;
22955;SDS011;40888;48.148;11.526;2022-12-07T12:47:56;8.70;;;7.73;;
22955;SDS011;40888;48.148;11.526;2022-12-07T12:50:32;10.20;;;8.17;;
22955;SDS011;40888;48.148;11.526;2022-12-07T12:53:41;8.83;;;7.93;;
22955;SDS011;40888;48.148;11.526;2022-12-07T12:56:03;9.23;;;8.20;;
22955;SDS011;40888;48.148;11.526;2022-12-07T12:58:39;10.70;;;8.63;;
22955;SDS011;40888;48.148;11.526;2022-12-07T13:03:52;9.20;;;7.90;;
22955;SDS011;40888;48.148;11.526;2022-12-07T13:06:19;9.17;;;8.27;;
22955;SDS011;40888;48.148;11.526;2022-12-07T13:08:46;9.70;;;7.87;;
22955;SDS011;40888;48.148;11.526;2022-12-07T13:11:20;8.67;;;7.73;;
22955;SDS011;40888;48.148;11.526;2022-12-07T13:13:50;8.83;;;7.73;;
22955;SDS011;40888;48.148;11.526;2022-12-07T13:18:43;8.90;;;8.00;;
22955;SDS011;40888;48.148;11.526;2022-12-07T13:21:41;8.73;;;7.77;;
22955;SDS011;40888;48.148;11.526;2022-12-07T13:23:55;9.20;;;8.30;;
22955;SDS011;40888;48.148;11.526;2022-12-07T13:26:26;9.43;;;8.30;;
22955;SDS011;40888;48.148;11.526;2022-12-07T13:33:53;8.60;;;7.70;;
22955;SDS011;40888;48.148;11.526;2022-12-07T13:36:52;9.20;;;8.30;;
22955;SDS011;40888;48.148;11.526;2022-12-07T13:41:41;10.53;;;7.93;;
22955;SDS011;40888;48.148;11.526;2022-12-07T13:46:43;9.53;;;8.50;;
22955;SDS011;40888;48.148;11.526;2022-12-07T13:49:24;11.40;;;9.03;;
22955;SDS011;40888;48.148;11.526;2022-12-07T13:51:51;9.87;;;8.50;;
22955;SDS011;40888;48.148;11.526;2022-12-07T13:54:18;11.63;;;10.00;;
22955;SDS011;40888;48.148;11.526;2022-12-07T13:56:47;9.60;;;8.60;;
22955;SDS011;40888;48.148;11.526;2022-12-07T13:59:18;9.53;;;8.53;;
22955;SDS011;40888;48.148;11.526;2022-12-07T14:01:45;10.30;;;9.17;;
22955;SDS011;40888;48.148;11.526;2022-12-07T14:04:16;10.17;;;9.17;;
22955;SDS011;40888;48.148;11.526;2022-12-07T14:06:51;10.20;;;8.87;;
22955;SDS011;40888;48.148;11.526;2022-12-07T14:09:22;9.77;;;8.83;;
22955;SDS011;40888;48.148;11.526;2022-12-07T14:11:49;9.60;;;8.60;;
22955;SDS011;40888;48.148;11.526;2022-12-07T14:14:37;7.57;;;6.67;;
22955;SDS011;40888;48.148;11.526;2022-12-07T14:17:12;7.13;;;6.43;;
22955;SDS011;40888;48.148;11.526;2022-12-07T14:19:45;8.03;;;7.03;;
22955;SDS011;40888;48.148;11.526;2022-12-07T14:27:38;7.63;;;6.83;;
22955;SDS011;40888;48.148;11.526;2022-12-07T14:30:05;10.90;;;6.47;;
22955;SDS011;40888;48.148;11.526;2022-12-07T14:32:31;6.23;;;5.60;;
22955;SDS011;40888;48.148;11.526;2022-12-07T14:35:02;6.07;;;5.47;;
22955;SDS011;40888;48.148;11.526;2022-12-07T14:37:29;7.50;;;6.23;;
22955;SDS011;40888;48.148;11.526;2022-12-07T14:39:55;6.60;;;5.87;;
22955;SDS011;40888;48.148;11.526;2022-12-07T14:42:22;5.97;;;5.37;;
22955;SDS011;40888;48.148;11.526;2022-12-07T14:44:49;8.40;;;5.80;;
22955;SDS011;40888;48.148;11.526;2022-12-07T14:47:16;7.20;;;5.67;;
22955;SDS011;40888;48.148;11.526;2022-12-07T14:49:42;7.47;;;5.47;;
22955;SDS011;40888;48.148;11.526;2022-12-07T14:52:27;7.47;;;6.37;;
22955;SDS011;40888;48.148;11.526;2022-12-07T14:54:53;6.47;;;5.37;;
22955;SDS011;40888;48.148;11.526;2022-12-07T14:57:19;8.37;;;6.53;;
22955;SDS011;40888;48.148;11.526;2022-12-07T14:59:46;9.73;;;6.13;;
22955;SDS011;40888;48.148;11.526;2022-12-07T15:02:14;6.63;;;5.43;;
22955;SDS011;40888;48.148;11.526;2022-12-07T15:04:40;7.63;;;5.43;;
22955;SDS011;40888;48.148;11.526;2022-12-07T15:07:12;6.30;;;5.70;;
22955;SDS011;40888;48.148;11.526;2022-12-07T15:09:41;6.50;;;5.73;;
22955;SDS011;40888;48.148;11.526;2022-12-07T15:12:07;7.17;;;6.47;;
22955;SDS011;40888;48.148;11.526;2022-12-07T15:14:33;7.47;;;6.77;;
22955;SDS011;40888;48.148;11.526;2022-12-07T15:16:59;7.10;;;6.50;;
22955;SDS011;40888;48.148;11.526;2022-12-07T15:19:25;7.03;;;6.33;;
22955;SDS011;40888;48.148;11.526;2022-12-07T15:21:52;6.77;;;6.03;;
22955;SDS011;40888;48.148;11.526;2022-12-07T15:24:18;8.07;;;6.70;;
22955;SDS011;40888;48.148;11.526;2022-12-07T15:26:45;8.30;;;7.50;;
22955;SDS011;40888;48.148;11.526;2022-12-07T15:29:11;8.10;;;7.27;;
22955;SDS011;40888;48.148;11.526;2022-12-07T15:31:39;8.17;;;7.37;;
22955;SDS011;40888;48.148;11.526;2022-12-07T15:34:05;8.07;;;7.27;;
22955;SDS011;40888;48.148;11.526;2022-12-07T15:36:32;7.60;;;6.83;;
22955;SDS011;40888;48.148;11.526;2022-12-07T15:38:59;7.77;;;6.97;;
22955;SDS011;40888;48.148;11.526;2022-12-07T15:41:25;9.13;;;8.13;;
22955;SDS011;40888;48.148;11.526;2022-12-07T15:43:52;8.57;;;7.43;;
22955;SDS011;40888;48.148;11.526;2022-12-07T15:46:37;9.53;;;8.07;;
22955;SDS011;40888;48.148;11.526;2022-12-07T15:49:06;8.70;;;7.77;;
22955;SDS011;40888;48.148;11.526;2022-12-07T15:51:34;8.67;;;7.70;;
22955;SDS011;40888;48.148;11.526;2022-12-07T15:54:00;8.47;;;7.63;;
22955;SDS011;40888;48.148;11.526;2022-12-07T15:56:26;9.17;;;8.10;;
22955;SDS011;40888;48.148;11.526;2022-12-07T15:58:52;10.27;;;8.43;;
22955;SDS011;40888;48.148;11.526;2022-12-07T16:01:19;9.67;;;8.63;;
22955;SDS011;40888;48.148;11.526;2022-12-07T16:03:45;12.33;;;8.87;;
22955;SDS011;40888;48.148;11.526;2022-12-07T16:06:14;9.50;;;8.60;;
22955;SDS011;40888;48.148;11.526;2022-12-07T16:08:44;10.60;;;9.20;;
22955;SDS011;40888;48.148;11.526;2022-12-07T16:11:10;10.80;;;9.70;;
22955;SDS011;40888;48.148;11.526;2022-12-07T16:13:36;10.03;;;9.03;;
22955;SDS011;40888;48.148;11.526;2022-12-07T16:16:04;10.70;;;9.60;;
22955;SDS011;40888;48.148;11.526;2022-12-07T16:18:31;14.53;;;12.97;;
22955;SDS011;40888;48.148;11.526;2022-12-07T16:20:57;15.80;;;14.17;;
22955;SDS011;40888;48.148;11.526;2022-12-07T16:23:23;15.27;;;13.67;;